sensor_id;sensor_type;location;lat;lon;timestamp;pressure;altitude;pressure_sealevel;temperature;humidity
64460;BME280;50828;53.756;21.140;2023-07-13T00:01:18;99388.68;;;16.36;66.00
64460;BME280;50828;53.756;21.140;2023-07-13T00:06:25;99396.35;;;16.31;66.21
64460;BME280;50828;53.756;21.140;2023-07-13T00:11:37;99397.71;;;16.25;66.49
64460;BME280;50828;53.756;21.140;2023-07-13T00:16:43;99400.05;;;16.20;66.87
64460;BME280;50828;53.756;21.140;2023-07-13T00:21:49;99401.03;;;16.16;67.25
64460;BME280;50828;53.756;21.140;2023-07-13T00:26:56;99402.84;;;16.13;67.43
64460;BME280;50828;53.756;21.140;2023-07-13T00:32:02;99400.01;;;16.11;67.47
64460;BME280;50828;53.756;21.140;2023-07-13T00:37:10;99397.33;;;16.08;67.67
64460;BME280;50828;53.756;21.140;2023-07-13T00:42:17;99399.42;;;16.07;67.57
64460;BME280;50828;53.756;21.140;2023-07-13T00:47:23;99395.73;;;16.03;67.80
64460;BME280;50828;53.756;21.140;2023-07-13T00:52:30;99388.19;;;16.00;67.74
64460;BME280;50828;53.756;21.140;2023-07-13T00:57:37;99386.30;;;15.97;67.71
64460;BME280;50828;53.756;21.140;2023-07-13T01:02:44;99383.08;;;15.94;67.81
64460;BME280;50828;53.756;21.140;2023-07-13T01:07:52;99383.52;;;15.91;67.85
64460;BME280;50828;53.756;21.140;2023-07-13T01:13:00;99384.96;;;15.88;67.78
64460;BME280;50828;53.756;21.140;2023-07-13T01:18:07;99383.11;;;15.85;67.66
64460;BME280;50828;53.756;21.140;2023-07-13T01:23:14;99375.27;;;15.80;67.34
64460;BME280;50828;53.756;21.140;2023-07-13T01:28:20;99368.48;;;15.75;67.43
64460;BME280;50828;53.756;21.140;2023-07-13T01:33:26;99371.10;;;15.71;67.24
64460;BME280;50828;53.756;21.140;2023-07-13T01:38:34;99375.42;;;15.66;67.35
64460;BME280;50828;53.756;21.140;2023-07-13T01:45:46;99377.55;;;15.55;67.19
64460;BME280;50828;53.756;21.140;2023-07-13T01:51:57;99402.71;;;15.53;67.32
64460;BME280;50828;53.756;21.140;2023-07-13T01:57:04;99405.05;;;15.51;67.15
64460;BME280;50828;53.756;21.140;2023-07-13T02:02:11;99407.92;;;15.45;67.20
64460;BME280;50828;53.756;21.140;2023-07-13T02:07:17;99419.35;;;15.39;67.19
64460;BME280;50828;53.756;21.140;2023-07-13T02:12:23;99433.22;;;15.34;67.76
64460;BME280;50828;53.756;21.140;2023-07-13T02:17:30;99439.92;;;15.29;68.06
64460;BME280;50828;53.756;21.140;2023-07-13T02:22:37;99440.67;;;15.26;68.52
64460;BME280;50828;53.756;21.140;2023-07-13T02:27:44;99443.42;;;15.25;68.82
64460;BME280;50828;53.756;21.140;2023-07-13T02:32:50;99431.25;;;15.24;69.04
64460;BME280;50828;53.756;21.140;2023-07-13T02:37:57;99416.44;;;15.25;69.15
64460;BME280;50828;53.756;21.140;2023-07-13T02:43:04;99426.41;;;15.27;69.25
64460;BME280;50828;53.756;21.140;2023-07-13T02:48:13;99435.13;;;15.29;69.41
64460;BME280;50828;53.756;21.140;2023-07-13T02:53:22;99436.48;;;15.30;69.32
64460;BME280;50828;53.756;21.140;2023-07-13T02:58:28;99428.68;;;15.30;69.39
64460;BME280;50828;53.756;21.140;2023-07-13T03:03:35;99432.59;;;15.30;69.35
64460;BME280;50828;53.756;21.140;2023-07-13T03:08:42;99432.42;;;15.30;69.59
64460;BME280;50828;53.756;21.140;2023-07-13T03:13:49;99425.88;;;15.30;69.61
64460;BME280;50828;53.756;21.140;2023-07-13T03:18:56;99421.08;;;15.30;69.67
64460;BME280;50828;53.756;21.140;2023-07-13T03:24:04;99428.96;;;15.31;69.95
64460;BME280;50828;53.756;21.140;2023-07-13T03:29:11;99430.14;;;15.32;69.99
64460;BME280;50828;53.756;21.140;2023-07-13T03:34:17;99431.09;;;15.34;70.06
64460;BME280;50828;53.756;21.140;2023-07-13T03:39:24;99434.16;;;15.38;70.10
64460;BME280;50828;53.756;21.140;2023-07-13T03:44:32;99440.64;;;15.42;70.35
64460;BME280;50828;53.756;21.140;2023-07-13T03:49:37;99440.88;;;15.46;70.47
64460;BME280;50828;53.756;21.140;2023-07-13T03:54:44;99435.51;;;15.51;70.68
64460;BME280;50828;53.756;21.140;2023-07-13T03:59:49;99437.14;;;15.59;70.73
64460;BME280;50828;53.756;21.140;2023-07-13T04:04:55;99447.83;;;15.68;70.98
64460;BME280;50828;53.756;21.140;2023-07-13T04:10:01;99436.64;;;15.78;71.13
64460;BME280;50828;53.756;21.140;2023-07-13T04:15:08;99434.13;;;15.88;71.16
64460;BME280;50828;53.756;21.140;2023-07-13T04:20:15;99445.54;;;16.00;71.27
64460;BME280;50828;53.756;21.140;2023-07-13T04:25:21;99453.35;;;16.10;71.33
64460;BME280;50828;53.756;21.140;2023-07-13T04:30:27;99455.69;;;16.19;71.39
64460;BME280;50828;53.756;21.140;2023-07-13T04:35:34;99458.36;;;16.28;71.38
64460;BME280;50828;53.756;21.140;2023-07-13T04:40:47;99463.04;;;16.40;71.42
64460;BME280;50828;53.756;21.140;2023-07-13T04:45:53;99466.28;;;16.51;71.40
64460;BME280;50828;53.756;21.140;2023-07-13T04:50:58;99478.44;;;16.62;71.53
64460;BME280;50828;53.756;21.140;2023-07-13T04:56:06;99486.24;;;16.72;71.58
64460;BME280;50828;53.756;21.140;2023-07-13T05:01:12;99487.91;;;16.80;71.68
64460;BME280;50828;53.756;21.140;2023-07-13T05:06:20;99490.32;;;16.88;71.76
64460;BME280;50828;53.756;21.140;2023-07-13T05:11:27;99497.57;;;16.96;71.72
64460;BME280;50828;53.756;21.140;2023-07-13T05:16:33;99505.16;;;17.07;71.61
64460;BME280;50828;53.756;21.140;2023-07-13T05:21:40;99512.48;;;17.17;71.67
64460;BME280;50828;53.756;21.140;2023-07-13T05:26:48;99518.01;;;17.33;71.53
64460;BME280;50828;53.756;21.140;2023-07-13T05:31:54;99517.71;;;17.51;71.56
64460;BME280;50828;53.756;21.140;2023-07-13T05:37:00;99521.60;;;17.70;71.53
64460;BME280;50828;53.756;21.140;2023-07-13T05:42:06;99524.39;;;17.86;71.44
64460;BME280;50828;53.756;21.140;2023-07-13T05:47:13;99529.14;;;18.03;71.25
64460;BME280;50828;53.756;21.140;2023-07-13T05:52:20;99538.98;;;18.24;71.04
64460;BME280;50828;53.756;21.140;2023-07-13T05:57:25;99547.35;;;18.51;70.84
64460;BME280;50828;53.756;21.140;2023-07-13T06:02:32;99553.59;;;18.77;70.57
64460;BME280;50828;53.756;21.140;2023-07-13T06:07:39;99552.12;;;18.99;70.62
64460;BME280;50828;53.756;21.140;2023-07-13T06:12:46;99550.58;;;19.15;70.13
64460;BME280;50828;53.756;21.140;2023-07-13T06:17:53;99558.11;;;19.25;69.63
64460;BME280;50828;53.756;21.140;2023-07-13T06:22:59;99567.11;;;19.33;69.42
64460;BME280;50828;53.756;21.140;2023-07-13T06:28:06;99569.03;;;19.40;68.98
64460;BME280;50828;53.756;21.140;2023-07-13T06:33:12;99569.50;;;19.47;68.62
64460;BME280;50828;53.756;21.140;2023-07-13T06:38:19;99576.70;;;19.52;68.26
64460;BME280;50828;53.756;21.140;2023-07-13T06:43:25;99573.05;;;19.62;68.31
64460;BME280;50828;53.756;21.140;2023-07-13T06:48:33;99575.87;;;19.79;68.09
64460;BME280;50828;53.756;21.140;2023-07-13T06:53:39;99580.61;;;19.98;67.49
64460;BME280;50828;53.756;21.140;2023-07-13T06:58:47;99583.64;;;20.13;67.18
64460;BME280;50828;53.756;21.140;2023-07-13T07:03:53;99584.27;;;20.24;66.19
64460;BME280;50828;53.756;21.140;2023-07-13T07:08:59;99584.61;;;20.32;65.95
64460;BME280;50828;53.756;21.140;2023-07-13T07:14:05;99576.92;;;20.40;65.39
64460;BME280;50828;53.756;21.140;2023-07-13T07:19:12;99575.84;;;20.48;65.39
64460;BME280;50828;53.756;21.140;2023-07-13T07:24:18;99571.81;;;20.57;64.74
64460;BME280;50828;53.756;21.140;2023-07-13T07:29:26;99567.14;;;20.65;64.38
64460;BME280;50828;53.756;21.140;2023-07-13T07:34:35;99570.88;;;20.76;63.82
64460;BME280;50828;53.756;21.140;2023-07-13T07:39:42;99565.12;;;20.88;63.76
64460;BME280;50828;53.756;21.140;2023-07-13T07:45:09;99566.38;;;21.13;63.88
64460;BME280;50828;53.756;21.140;2023-07-13T07:50:15;99569.30;;;21.43;62.85
64460;BME280;50828;53.756;21.140;2023-07-13T07:55:22;99566.41;;;21.68;62.40
64460;BME280;50828;53.756;21.140;2023-07-13T08:00:32;99565.34;;;21.93;61.78
64460;BME280;50828;53.756;21.140;2023-07-13T08:05:42;99558.07;;;22.10;61.60
64460;BME280;50828;53.756;21.140;2023-07-13T08:11:08;99558.61;;;22.27;60.68
64460;BME280;50828;53.756;21.140;2023-07-13T08:16:18;99553.55;;;22.44;60.19
64460;BME280;50828;53.756;21.140;2023-07-13T08:21:24;99559.01;;;22.65;60.00
64460;BME280;50828;53.756;21.140;2023-07-13T08:26:30;99557.77;;;22.83;59.31
64460;BME280;50828;53.756;21.140;2023-07-13T08:31:36;99556.17;;;23.03;59.03
64460;BME280;50828;53.756;21.140;2023-07-13T08:36:42;99557.57;;;23.30;58.77
64460;BME280;50828;53.756;21.140;2023-07-13T08:41:48;99555.35;;;23.60;58.25
64460;BME280;50828;53.756;21.140;2023-07-13T08:46:55;99554.17;;;23.77;56.35
64460;BME280;50828;53.756;21.140;2023-07-13T08:52:03;99566.07;;;23.86;55.15
64460;BME280;50828;53.756;21.140;2023-07-13T08:57:12;99578.75;;;23.85;54.96
64460;BME280;50828;53.756;21.140;2023-07-13T09:02:22;99580.94;;;23.82;54.78
64460;BME280;50828;53.756;21.140;2023-07-13T09:07:38;99580.70;;;23.81;54.44
64460;BME280;50828;53.756;21.140;2023-07-13T09:12:48;99568.05;;;23.78;54.23
64460;BME280;50828;53.756;21.140;2023-07-13T09:17:57;99562.85;;;23.74;53.95
64460;BME280;50828;53.756;21.140;2023-07-13T09:23:05;99569.55;;;23.74;53.64
64460;BME280;50828;53.756;21.140;2023-07-13T09:28:14;99577.33;;;23.77;53.77
64460;BME280;50828;53.756;21.140;2023-07-13T09:33:21;99577.41;;;23.81;53.89
64460;BME280;50828;53.756;21.140;2023-07-13T09:38:27;99563.42;;;23.88;53.38
64460;BME280;50828;53.756;21.140;2023-07-13T09:43:34;99565.52;;;23.96;52.53
64460;BME280;50828;53.756;21.140;2023-07-13T09:48:39;99570.33;;;24.02;52.29
64460;BME280;50828;53.756;21.140;2023-07-13T09:53:48;99575.48;;;24.09;52.49
64460;BME280;50828;53.756;21.140;2023-07-13T09:58:54;99565.34;;;24.13;51.70
64460;BME280;50828;53.756;21.140;2023-07-13T10:04:01;99565.10;;;24.20;50.80
64460;BME280;50828;53.756;21.140;2023-07-13T10:09:07;99566.34;;;24.26;51.11
64460;BME280;50828;53.756;21.140;2023-07-13T10:14:14;99555.59;;;24.30;51.22
64460;BME280;50828;53.756;21.140;2023-07-13T10:19:21;99557.13;;;24.38;51.02
64460;BME280;50828;53.756;21.140;2023-07-13T10:24:31;99552.16;;;24.40;50.82
64460;BME280;50828;53.756;21.140;2023-07-13T10:29:38;99556.11;;;24.46;50.81
64460;BME280;50828;53.756;21.140;2023-07-13T10:34:46;99555.70;;;24.48;50.45
64460;BME280;50828;53.756;21.140;2023-07-13T10:39:55;99550.08;;;24.51;49.94
64460;BME280;50828;53.756;21.140;2023-07-13T10:45:01;99558.08;;;24.54;49.89
64460;BME280;50828;53.756;21.140;2023-07-13T10:50:11;99559.61;;;24.55;50.12
64460;BME280;50828;53.756;21.140;2023-07-13T10:55:37;99558.88;;;24.55;50.36
64460;BME280;50828;53.756;21.140;2023-07-13T11:00:46;99555.45;;;24.59;50.61
64460;BME280;50828;53.756;21.140;2023-07-13T11:06:03;99556.43;;;24.60;50.74
64460;BME280;50828;53.756;21.140;2023-07-13T11:16:43;99567.77;;;24.58;49.09
64460;BME280;50828;53.756;21.140;2023-07-13T11:27:18;99554.46;;;24.54;48.79
64460;BME280;50828;53.756;21.140;2023-07-13T11:32:30;99553.55;;;24.52;48.50
64460;BME280;50828;53.756;21.140;2023-07-13T11:37:37;99562.50;;;24.53;48.73
64460;BME280;50828;53.756;21.140;2023-07-13T11:42:43;99559.42;;;24.55;48.41
64460;BME280;50828;53.756;21.140;2023-07-13T11:47:49;99559.14;;;24.58;48.51
64460;BME280;50828;53.756;21.140;2023-07-13T11:52:55;99552.97;;;24.62;48.30
64460;BME280;50828;53.756;21.140;2023-07-13T11:58:01;99548.75;;;24.64;46.91
64460;BME280;50828;53.756;21.140;2023-07-13T12:03:07;99545.61;;;24.68;47.13
64460;BME280;50828;53.756;21.140;2023-07-13T12:08:15;99551.70;;;24.75;47.08
64460;BME280;50828;53.756;21.140;2023-07-13T12:13:28;99548.73;;;24.81;46.63
64460;BME280;50828;53.756;21.140;2023-07-13T12:18:34;99555.28;;;24.88;47.19
64460;BME280;50828;53.756;21.140;2023-07-13T12:23:42;99556.23;;;24.95;47.68
64460;BME280;50828;53.756;21.140;2023-07-13T12:28:49;99563.46;;;25.03;47.39
64460;BME280;50828;53.756;21.140;2023-07-13T12:34:00;99563.70;;;25.09;46.69
64460;BME280;50828;53.756;21.140;2023-07-13T12:39:13;99567.89;;;25.15;47.31
64460;BME280;50828;53.756;21.140;2023-07-13T12:44:21;99560.02;;;25.21;47.23
64460;BME280;50828;53.756;21.140;2023-07-13T12:49:31;99562.00;;;25.28;47.35
64460;BME280;50828;53.756;21.140;2023-07-13T12:54:39;99557.70;;;25.34;46.92
64460;BME280;50828;53.756;21.140;2023-07-13T12:59:58;99550.77;;;25.40;46.57
64460;BME280;50828;53.756;21.140;2023-07-13T13:05:04;99548.30;;;25.44;45.81
64460;BME280;50828;53.756;21.140;2023-07-13T13:10:13;99548.36;;;25.50;45.71
64460;BME280;50828;53.756;21.140;2023-07-13T13:15:18;99541.98;;;25.49;44.93
64460;BME280;50828;53.756;21.140;2023-07-13T13:20:26;99547.05;;;25.60;44.06
64460;BME280;50828;53.756;21.140;2023-07-13T13:25:31;99547.64;;;25.69;44.38
64460;BME280;50828;53.756;21.140;2023-07-13T13:30:37;99545.48;;;25.76;44.70
64460;BME280;50828;53.756;21.140;2023-07-13T13:35:44;99548.21;;;25.80;44.82
64460;BME280;50828;53.756;21.140;2023-07-13T13:40:50;99550.38;;;25.84;44.97
64460;BME280;50828;53.756;21.140;2023-07-13T13:45:57;99549.27;;;25.87;44.95
64460;BME280;50828;53.756;21.140;2023-07-13T13:51:09;99540.23;;;25.87;44.65
64460;BME280;50828;53.756;21.140;2023-07-13T13:56:18;99556.55;;;25.87;43.69
64460;BME280;50828;53.756;21.140;2023-07-13T14:01:23;99555.58;;;25.87;44.17
64460;BME280;50828;53.756;21.140;2023-07-13T14:06:29;99561.52;;;25.88;44.37
64460;BME280;50828;53.756;21.140;2023-07-13T14:11:34;99565.29;;;25.89;44.30
64460;BME280;50828;53.756;21.140;2023-07-13T14:16:40;99561.20;;;25.87;44.40
64460;BME280;50828;53.756;21.140;2023-07-13T14:21:47;99560.73;;;25.84;44.39
64460;BME280;50828;53.756;21.140;2023-07-13T14:26:53;99562.38;;;25.79;44.33
64460;BME280;50828;53.756;21.140;2023-07-13T14:31:59;99562.83;;;25.77;44.53
64460;BME280;50828;53.756;21.140;2023-07-13T14:37:05;99560.14;;;25.72;44.48
64460;BME280;50828;53.756;21.140;2023-07-13T14:42:12;99563.16;;;25.69;44.79
64460;BME280;50828;53.756;21.140;2023-07-13T14:47:17;99565.52;;;25.66;44.76
64460;BME280;50828;53.756;21.140;2023-07-13T14:52:23;99566.59;;;25.61;44.39
64460;BME280;50828;53.756;21.140;2023-07-13T14:57:30;99572.64;;;25.57;44.23
64460;BME280;50828;53.756;21.140;2023-07-13T15:02:36;99573.30;;;25.51;43.97
64460;BME280;50828;53.756;21.140;2023-07-13T15:07:43;99578.13;;;25.45;43.85
64460;BME280;50828;53.756;21.140;2023-07-13T15:12:50;99579.27;;;25.38;44.08
64460;BME280;50828;53.756;21.140;2023-07-13T15:17:56;99579.13;;;25.31;44.35
64460;BME280;50828;53.756;21.140;2023-07-13T15:23:03;99580.29;;;25.23;44.72
64460;BME280;50828;53.756;21.140;2023-07-13T15:28:09;99575.83;;;25.15;45.06
64460;BME280;50828;53.756;21.140;2023-07-13T15:33:17;99578.80;;;25.07;45.13
64460;BME280;50828;53.756;21.140;2023-07-13T15:38:27;99579.34;;;24.99;44.86
64460;BME280;50828;53.756;21.140;2023-07-13T15:43:33;99581.05;;;24.90;44.89
64460;BME280;50828;53.756;21.140;2023-07-13T15:48:39;99591.73;;;24.81;45.06
64460;BME280;50828;53.756;21.140;2023-07-13T15:53:44;99593.25;;;24.72;45.36
64460;BME280;50828;53.756;21.140;2023-07-13T15:58:52;99598.55;;;24.63;45.69
64460;BME280;50828;53.756;21.140;2023-07-13T16:03:58;99595.31;;;24.54;45.71
64460;BME280;50828;53.756;21.140;2023-07-13T16:09:04;99594.36;;;24.46;46.00
64460;BME280;50828;53.756;21.140;2023-07-13T16:14:11;99598.66;;;24.38;46.14
64460;BME280;50828;53.756;21.140;2023-07-13T16:19:19;99602.69;;;24.31;45.65
64460;BME280;50828;53.756;21.140;2023-07-13T16:24:33;99606.00;;;24.23;45.78
64460;BME280;50828;53.756;21.140;2023-07-13T16:29:39;99610.09;;;24.13;45.76
64460;BME280;50828;53.756;21.140;2023-07-13T16:34:46;99616.75;;;24.08;45.83
64460;BME280;50828;53.756;21.140;2023-07-13T16:39:53;99620.73;;;24.03;46.03
64460;BME280;50828;53.756;21.140;2023-07-13T16:45:02;99628.35;;;23.97;46.16
64460;BME280;50828;53.756;21.140;2023-07-13T16:50:12;99635.40;;;23.91;46.35
64460;BME280;50828;53.756;21.140;2023-07-13T16:55:19;99635.83;;;23.85;46.68
64460;BME280;50828;53.756;21.140;2023-07-13T17:00:31;99635.27;;;23.80;46.94
64460;BME280;50828;53.756;21.140;2023-07-13T17:05:41;99649.59;;;23.74;46.85
64460;BME280;50828;53.756;21.140;2023-07-13T17:10:49;99652.55;;;23.68;47.09
64460;BME280;50828;53.756;21.140;2023-07-13T17:15:56;99657.14;;;23.59;47.47
64460;BME280;50828;53.756;21.140;2023-07-13T17:21:03;99659.48;;;23.50;47.86
64460;BME280;50828;53.756;21.140;2023-07-13T17:26:09;99664.27;;;23.40;48.22
64460;BME280;50828;53.756;21.140;2023-07-13T17:31:18;99667.50;;;23.30;48.03
64460;BME280;50828;53.756;21.140;2023-07-13T17:36:25;99661.81;;;23.18;47.87
64460;BME280;50828;53.756;21.140;2023-07-13T17:41:32;99661.21;;;23.06;47.90
64460;BME280;50828;53.756;21.140;2023-07-13T17:46:38;99656.40;;;22.95;48.19
64460;BME280;50828;53.756;21.140;2023-07-13T17:51:45;99654.61;;;22.82;48.63
64460;BME280;50828;53.756;21.140;2023-07-13T17:56:52;99654.13;;;22.71;49.06
64460;BME280;50828;53.756;21.140;2023-07-13T18:01:58;99659.73;;;22.59;49.59
64460;BME280;50828;53.756;21.140;2023-07-13T18:07:06;99652.80;;;22.47;49.94
64460;BME280;50828;53.756;21.140;2023-07-13T18:12:14;99650.81;;;22.36;49.90
64460;BME280;50828;53.756;21.140;2023-07-13T18:17:19;99657.76;;;22.29;50.03
64460;BME280;50828;53.756;21.140;2023-07-13T18:22:25;99662.10;;;22.21;50.38
64460;BME280;50828;53.756;21.140;2023-07-13T18:27:34;99664.81;;;22.13;50.38
64460;BME280;50828;53.756;21.140;2023-07-13T18:32:41;99659.73;;;22.07;50.65
64460;BME280;50828;53.756;21.140;2023-07-13T18:37:49;99662.98;;;21.99;51.17
64460;BME280;50828;53.756;21.140;2023-07-13T18:42:55;99663.56;;;21.89;50.90
64460;BME280;50828;53.756;21.140;2023-07-13T18:48:10;99674.44;;;21.84;50.82
64460;BME280;50828;53.756;21.140;2023-07-13T18:53:18;99665.20;;;21.75;50.86
64460;BME280;50828;53.756;21.140;2023-07-13T18:58:24;99671.84;;;21.68;51.15
64460;BME280;50828;53.756;21.140;2023-07-13T19:03:30;99678.38;;;21.61;51.60
64460;BME280;50828;53.756;21.140;2023-07-13T19:08:39;99677.95;;;21.52;52.19
64460;BME280;50828;53.756;21.140;2023-07-13T19:13:46;99683.83;;;21.42;52.66
64460;BME280;50828;53.756;21.140;2023-07-13T19:18:55;99687.65;;;21.34;53.33
64460;BME280;50828;53.756;21.140;2023-07-13T19:24:02;99691.52;;;21.25;53.40
64460;BME280;50828;53.756;21.140;2023-07-13T19:29:09;99702.70;;;21.14;53.62
64460;BME280;50828;53.756;21.140;2023-07-13T19:34:19;99705.83;;;21.05;54.05
64460;BME280;50828;53.756;21.140;2023-07-13T19:39:27;99710.85;;;20.95;54.23
64460;BME280;50828;53.756;21.140;2023-07-13T19:44:34;99709.16;;;20.84;54.51
64460;BME280;50828;53.756;21.140;2023-07-13T19:49:42;99720.77;;;20.72;54.63
64460;BME280;50828;53.756;21.140;2023-07-13T19:54:48;99727.34;;;20.62;54.65
64460;BME280;50828;53.756;21.140;2023-07-13T19:59:54;99729.52;;;20.51;54.93
64460;BME280;50828;53.756;21.140;2023-07-13T20:05:04;99729.27;;;20.40;55.29
64460;BME280;50828;53.756;21.140;2023-07-13T20:10:16;99732.64;;;20.28;55.39
64460;BME280;50828;53.756;21.140;2023-07-13T20:15:22;99730.04;;;20.17;55.85
64460;BME280;50828;53.756;21.140;2023-07-13T20:20:30;99720.89;;;19.98;55.65
64460;BME280;50828;53.756;21.140;2023-07-13T20:25:36;99740.52;;;19.94;55.99
64460;BME280;50828;53.756;21.140;2023-07-13T20:30:44;99735.98;;;19.83;56.16
64460;BME280;50828;53.756;21.140;2023-07-13T20:35:51;99741.94;;;19.71;56.24
64460;BME280;50828;53.756;21.140;2023-07-13T20:40:57;99742.59;;;19.61;56.44
64460;BME280;50828;53.756;21.140;2023-07-13T20:46:04;99744.84;;;19.57;56.33
64460;BME280;50828;53.756;21.140;2023-07-13T20:51:16;99748.23;;;19.56;56.59
64460;BME280;50828;53.756;21.140;2023-07-13T20:56:23;99752.56;;;19.51;56.78
64460;BME280;50828;53.756;21.140;2023-07-13T21:01:30;99760.10;;;19.46;56.93
64460;BME280;50828;53.756;21.140;2023-07-13T21:06:37;99752.33;;;19.38;57.24
64460;BME280;50828;53.756;21.140;2023-07-13T21:11:42;99764.00;;;19.31;57.16
64460;BME280;50828;53.756;21.140;2023-07-13T21:16:48;99756.79;;;19.21;57.42
64460;BME280;50828;53.756;21.140;2023-07-13T21:21:54;99752.88;;;19.10;57.83
64460;BME280;50828;53.756;21.140;2023-07-13T21:26:59;99767.13;;;19.01;57.94
64460;BME280;50828;53.756;21.140;2023-07-13T21:32:08;99774.42;;;18.93;58.54
64460;BME280;50828;53.756;21.140;2023-07-13T21:37:17;99775.63;;;18.87;58.55
64460;BME280;50828;53.756;21.140;2023-07-13T21:42:23;99782.53;;;18.78;58.85
64460;BME280;50828;53.756;21.140;2023-07-13T21:47:29;99785.98;;;18.70;59.38
64460;BME280;50828;53.756;21.140;2023-07-13T21:52:35;99786.20;;;18.63;59.41
64460;BME280;50828;53.756;21.140;2023-07-13T21:57:41;99788.00;;;18.56;59.83
64460;BME280;50828;53.756;21.140;2023-07-13T22:02:47;99786.31;;;18.50;59.97
64460;BME280;50828;53.756;21.140;2023-07-13T22:07:53;99782.59;;;18.45;60.30
64460;BME280;50828;53.756;21.140;2023-07-13T22:12:59;99783.23;;;18.42;60.27
64460;BME280;50828;53.756;21.140;2023-07-13T22:18:05;99778.49;;;18.39;60.50
64460;BME280;50828;53.756;21.140;2023-07-13T22:23:21;99775.00;;;18.33;60.76
64460;BME280;50828;53.756;21.140;2023-07-13T22:28:27;99768.59;;;18.24;60.26
64460;BME280;50828;53.756;21.140;2023-07-13T22:33:33;99771.50;;;18.07;60.60
64460;BME280;50828;53.756;21.140;2023-07-13T22:38:39;99771.23;;;17.99;60.64
64460;BME280;50828;53.756;21.140;2023-07-13T22:43:45;99769.51;;;17.93;60.84
64460;BME280;50828;53.756;21.140;2023-07-13T22:48:53;99762.32;;;17.87;60.31
64460;BME280;50828;53.756;21.140;2023-07-13T22:54:00;99759.83;;;17.77;60.25
64460;BME280;50828;53.756;21.140;2023-07-13T22:59:06;99754.67;;;17.70;60.01
64460;BME280;50828;53.756;21.140;2023-07-13T23:04:15;99750.98;;;17.64;59.54
64460;BME280;50828;53.756;21.140;2023-07-13T23:09:22;99751.59;;;17.56;59.65
64460;BME280;50828;53.756;21.140;2023-07-13T23:14:28;99753.99;;;17.48;59.68
64460;BME280;50828;53.756;21.140;2023-07-13T23:19:34;99751.23;;;17.40;59.98
64460;BME280;50828;53.756;21.140;2023-07-13T23:24:41;99752.90;;;17.29;60.45
64460;BME280;50828;53.756;21.140;2023-07-13T23:29:46;99753.26;;;17.19;60.17
64460;BME280;50828;53.756;21.140;2023-07-13T23:34:52;99749.52;;;17.12;60.47
64460;BME280;50828;53.756;21.140;2023-07-13T23:39:58;99756.30;;;17.04;60.74
64460;BME280;50828;53.756;21.140;2023-07-13T23:45:04;99757.73;;;16.97;60.59
64460;BME280;50828;53.756;21.140;2023-07-13T23:55:20;99759.59;;;16.83;60.95
